sensor_id;sensor_type;location;lat;lon;timestamp;P1;durP1;ratioP1;P2;durP2;ratioP2
32393;SDS011;18853;45.426;9.206;2023-08-31T00:02:09;5.53;;;1.10;;
32393;SDS011;18853;45.426;9.206;2023-08-31T00:04:35;3.55;;;1.20;;
32393;SDS011;18853;45.426;9.206;2023-08-31T00:07:00;2.05;;;0.90;;
32393;SDS011;18853;45.426;9.206;2023-08-31T00:09:26;2.38;;;0.85;;
32393;SDS011;18853;45.426;9.206;2023-08-31T00:11:52;3.45;;;1.00;;
32393;SDS011;18853;45.426;9.206;2023-08-31T00:14:18;4.07;;;1.00;;
32393;SDS011;18853;45.426;9.206;2023-08-31T00:16:43;4.85;;;1.25;;
32393;SDS011;18853;45.426;9.206;2023-08-31T00:19:14;5.97;;;1.40;;
32393;SDS011;18853;45.426;9.206;2023-08-31T00:21:40;2.10;;;0.90;;
32393;SDS011;18853;45.426;9.206;2023-08-31T00:24:05;2.38;;;1.00;;
32393;SDS011;18853;45.426;9.206;2023-08-31T00:26:33;6.00;;;1.10;;
32393;SDS011;18853;45.426;9.206;2023-08-31T00:28:59;4.00;;;1.10;;
32393;SDS011;18853;45.426;9.206;2023-08-31T00:31:24;2.45;;;1.13;;
32393;SDS011;18853;45.426;9.206;2023-08-31T00:33:52;3.72;;;1.10;;
32393;SDS011;18853;45.426;9.206;2023-08-31T00:36:18;2.13;;;0.82;;
32393;SDS011;18853;45.426;9.206;2023-08-31T00:38:44;2.22;;;1.10;;
32393;SDS011;18853;45.426;9.206;2023-08-31T00:41:10;3.53;;;1.00;;
32393;SDS011;18853;45.426;9.206;2023-08-31T00:43:35;3.63;;;1.20;;
32393;SDS011;18853;45.426;9.206;2023-08-31T00:46:01;5.70;;;1.33;;
32393;SDS011;18853;45.426;9.206;2023-08-31T00:48:27;3.25;;;1.40;;
32393;SDS011;18853;45.426;9.206;2023-08-31T00:50:53;2.53;;;1.00;;
32393;SDS011;18853;45.426;9.206;2023-08-31T00:53:19;3.33;;;1.30;;
32393;SDS011;18853;45.426;9.206;2023-08-31T00:55:46;2.42;;;1.00;;
32393;SDS011;18853;45.426;9.206;2023-08-31T00:58:12;3.33;;;1.20;;
32393;SDS011;18853;45.426;9.206;2023-08-31T01:03:40;2.50;;;1.23;;
32393;SDS011;18853;45.426;9.206;2023-08-31T01:06:32;2.80;;;1.15;;
32393;SDS011;18853;45.426;9.206;2023-08-31T01:09:18;3.92;;;1.20;;
32393;SDS011;18853;45.426;9.206;2023-08-31T01:12:00;3.35;;;1.20;;
32393;SDS011;18853;45.426;9.206;2023-08-31T01:14:48;4.30;;;1.42;;
32393;SDS011;18853;45.426;9.206;2023-08-31T01:17:19;2.20;;;1.00;;
32393;SDS011;18853;45.426;9.206;2023-08-31T01:22:16;4.47;;;1.10;;
32393;SDS011;18853;45.426;9.206;2023-08-31T01:24:46;2.47;;;1.17;;
32393;SDS011;18853;45.426;9.206;2023-08-31T01:27:12;3.88;;;1.20;;
32393;SDS011;18853;45.426;9.206;2023-08-31T01:29:39;3.85;;;1.20;;
32393;SDS011;18853;45.426;9.206;2023-08-31T01:32:05;2.83;;;0.90;;
32393;SDS011;18853;45.426;9.206;2023-08-31T01:34:32;2.97;;;1.23;;
32393;SDS011;18853;45.426;9.206;2023-08-31T01:37:00;3.22;;;1.05;;
32393;SDS011;18853;45.426;9.206;2023-08-31T01:39:56;3.22;;;1.27;;
32393;SDS011;18853;45.426;9.206;2023-08-31T01:42:24;3.20;;;1.00;;
32393;SDS011;18853;45.426;9.206;2023-08-31T01:44:52;3.55;;;1.27;;
32393;SDS011;18853;45.426;9.206;2023-08-31T01:47:21;5.43;;;1.50;;
32393;SDS011;18853;45.426;9.206;2023-08-31T01:49:48;3.17;;;1.48;;
32393;SDS011;18853;45.426;9.206;2023-08-31T01:52:13;2.63;;;1.10;;
32393;SDS011;18853;45.426;9.206;2023-08-31T01:54:39;3.50;;;1.10;;
32393;SDS011;18853;45.426;9.206;2023-08-31T01:57:05;5.78;;;1.50;;
32393;SDS011;18853;45.426;9.206;2023-08-31T01:59:31;4.00;;;1.05;;
32393;SDS011;18853;45.426;9.206;2023-08-31T02:01:58;2.60;;;1.00;;
32393;SDS011;18853;45.426;9.206;2023-08-31T02:04:23;2.58;;;1.00;;
32393;SDS011;18853;45.426;9.206;2023-08-31T02:06:49;4.47;;;1.20;;
32393;SDS011;18853;45.426;9.206;2023-08-31T02:09:15;2.72;;;1.40;;
32393;SDS011;18853;45.426;9.206;2023-08-31T02:11:41;3.35;;;1.30;;
32393;SDS011;18853;45.426;9.206;2023-08-31T02:14:06;2.50;;;1.30;;
32393;SDS011;18853;45.426;9.206;2023-08-31T02:16:32;3.45;;;1.30;;
32393;SDS011;18853;45.426;9.206;2023-08-31T02:18:59;3.13;;;1.17;;
32393;SDS011;18853;45.426;9.206;2023-08-31T02:21:25;2.67;;;1.00;;
32393;SDS011;18853;45.426;9.206;2023-08-31T02:23:50;2.72;;;1.25;;
32393;SDS011;18853;45.426;9.206;2023-08-31T02:26:16;2.80;;;1.20;;
32393;SDS011;18853;45.426;9.206;2023-08-31T02:28:42;2.95;;;1.02;;
32393;SDS011;18853;45.426;9.206;2023-08-31T02:31:09;3.25;;;1.10;;
32393;SDS011;18853;45.426;9.206;2023-08-31T02:33:36;3.25;;;1.02;;
32393;SDS011;18853;45.426;9.206;2023-08-31T02:36:02;3.13;;;1.00;;
32393;SDS011;18853;45.426;9.206;2023-08-31T02:38:28;2.45;;;1.10;;
32393;SDS011;18853;45.426;9.206;2023-08-31T02:40:53;3.33;;;1.60;;
32393;SDS011;18853;45.426;9.206;2023-08-31T02:43:19;4.22;;;1.10;;
32393;SDS011;18853;45.426;9.206;2023-08-31T02:45:45;2.58;;;1.13;;
32393;SDS011;18853;45.426;9.206;2023-08-31T02:48:11;3.17;;;1.10;;
32393;SDS011;18853;45.426;9.206;2023-08-31T02:50:37;3.05;;;1.30;;
32393;SDS011;18853;45.426;9.206;2023-08-31T02:53:03;2.40;;;1.10;;
32393;SDS011;18853;45.426;9.206;2023-08-31T02:55:31;7.05;;;1.50;;
32393;SDS011;18853;45.426;9.206;2023-08-31T02:57:57;3.88;;;1.40;;
32393;SDS011;18853;45.426;9.206;2023-08-31T03:00:23;2.97;;;1.15;;
32393;SDS011;18853;45.426;9.206;2023-08-31T03:02:49;2.22;;;1.27;;
32393;SDS011;18853;45.426;9.206;2023-08-31T03:05:18;3.17;;;1.33;;
32393;SDS011;18853;45.426;9.206;2023-08-31T03:07:46;3.13;;;1.48;;
32393;SDS011;18853;45.426;9.206;2023-08-31T03:10:12;3.08;;;1.20;;
32393;SDS011;18853;45.426;9.206;2023-08-31T03:12:38;3.70;;;1.80;;
32393;SDS011;18853;45.426;9.206;2023-08-31T03:15:04;3.70;;;1.40;;
32393;SDS011;18853;45.426;9.206;2023-08-31T03:17:32;4.10;;;1.48;;
32393;SDS011;18853;45.426;9.206;2023-08-31T03:19:57;4.35;;;1.30;;
32393;SDS011;18853;45.426;9.206;2023-08-31T03:22:23;4.03;;;1.30;;
32393;SDS011;18853;45.426;9.206;2023-08-31T03:24:49;3.25;;;1.00;;
32393;SDS011;18853;45.426;9.206;2023-08-31T03:27:14;3.95;;;1.50;;
32393;SDS011;18853;45.426;9.206;2023-08-31T03:29:44;3.42;;;1.40;;
32393;SDS011;18853;45.426;9.206;2023-08-31T03:32:10;3.85;;;1.45;;
32393;SDS011;18853;45.426;9.206;2023-08-31T03:34:35;4.88;;;1.52;;
32393;SDS011;18853;45.426;9.206;2023-08-31T03:37:01;3.70;;;1.60;;
32393;SDS011;18853;45.426;9.206;2023-08-31T03:39:27;2.80;;;1.30;;
32393;SDS011;18853;45.426;9.206;2023-08-31T03:41:52;3.92;;;1.65;;
32393;SDS011;18853;45.426;9.206;2023-08-31T03:44:19;3.28;;;1.70;;
32393;SDS011;18853;45.426;9.206;2023-08-31T03:46:46;4.20;;;1.60;;
32393;SDS011;18853;45.426;9.206;2023-08-31T03:49:11;3.63;;;1.60;;
32393;SDS011;18853;45.426;9.206;2023-08-31T03:51:37;4.40;;;1.58;;
32393;SDS011;18853;45.426;9.206;2023-08-31T03:54:03;3.72;;;1.27;;
32393;SDS011;18853;45.426;9.206;2023-08-31T03:56:28;5.72;;;1.77;;
32393;SDS011;18853;45.426;9.206;2023-08-31T03:58:54;4.53;;;2.00;;
32393;SDS011;18853;45.426;9.206;2023-08-31T04:01:20;5.43;;;2.35;;
32393;SDS011;18853;45.426;9.206;2023-08-31T04:03:45;7.32;;;2.20;;
32393;SDS011;18853;45.426;9.206;2023-08-31T04:06:11;5.45;;;2.65;;
32393;SDS011;18853;45.426;9.206;2023-08-31T04:08:38;7.18;;;3.50;;
32393;SDS011;18853;45.426;9.206;2023-08-31T04:11:04;6.60;;;3.75;;
32393;SDS011;18853;45.426;9.206;2023-08-31T04:13:29;4.72;;;3.17;;
32393;SDS011;18853;45.426;9.206;2023-08-31T04:15:55;6.50;;;2.97;;
32393;SDS011;18853;45.426;9.206;2023-08-31T04:18:21;6.70;;;3.60;;
32393;SDS011;18853;45.426;9.206;2023-08-31T04:20:50;4.80;;;2.67;;
32393;SDS011;18853;45.426;9.206;2023-08-31T04:23:17;6.20;;;2.90;;
32393;SDS011;18853;45.426;9.206;2023-08-31T04:25:43;7.82;;;3.58;;
32393;SDS011;18853;45.426;9.206;2023-08-31T04:28:09;8.13;;;3.90;;
32393;SDS011;18853;45.426;9.206;2023-08-31T04:30:35;7.43;;;4.95;;
32393;SDS011;18853;45.426;9.206;2023-08-31T04:33:01;7.80;;;4.38;;
32393;SDS011;18853;45.426;9.206;2023-08-31T04:35:27;8.52;;;4.80;;
32393;SDS011;18853;45.426;9.206;2023-08-31T04:37:53;7.65;;;4.00;;
32393;SDS011;18853;45.426;9.206;2023-08-31T04:40:18;6.38;;;3.90;;
32393;SDS011;18853;45.426;9.206;2023-08-31T04:42:44;5.47;;;3.83;;
32393;SDS011;18853;45.426;9.206;2023-08-31T04:45:10;7.40;;;3.90;;
32393;SDS011;18853;45.426;9.206;2023-08-31T04:47:37;5.40;;;3.58;;
32393;SDS011;18853;45.426;9.206;2023-08-31T04:50:02;9.18;;;4.57;;
32393;SDS011;18853;45.426;9.206;2023-08-31T04:52:31;7.22;;;4.13;;
32393;SDS011;18853;45.426;9.206;2023-08-31T04:54:57;6.38;;;4.35;;
32393;SDS011;18853;45.426;9.206;2023-08-31T04:57:22;6.65;;;3.72;;
32393;SDS011;18853;45.426;9.206;2023-08-31T04:59:49;10.20;;;4.45;;
32393;SDS011;18853;45.426;9.206;2023-08-31T05:02:15;6.07;;;4.28;;
32393;SDS011;18853;45.426;9.206;2023-08-31T05:04:40;5.93;;;4.35;;
32393;SDS011;18853;45.426;9.206;2023-08-31T05:07:06;7.45;;;4.55;;
32393;SDS011;18853;45.426;9.206;2023-08-31T05:09:32;6.35;;;4.50;;
32393;SDS011;18853;45.426;9.206;2023-08-31T05:12:00;8.20;;;4.35;;
32393;SDS011;18853;45.426;9.206;2023-08-31T05:14:27;7.68;;;4.55;;
32393;SDS011;18853;45.426;9.206;2023-08-31T05:16:53;8.35;;;5.28;;
32393;SDS011;18853;45.426;9.206;2023-08-31T05:19:19;6.95;;;4.97;;
32393;SDS011;18853;45.426;9.206;2023-08-31T05:21:45;7.15;;;4.95;;
32393;SDS011;18853;45.426;9.206;2023-08-31T05:24:11;6.47;;;5.30;;
32393;SDS011;18853;45.426;9.206;2023-08-31T05:26:36;6.03;;;4.72;;
32393;SDS011;18853;45.426;9.206;2023-08-31T05:29:02;5.80;;;4.60;;
32393;SDS011;18853;45.426;9.206;2023-08-31T05:31:31;8.77;;;5.07;;
32393;SDS011;18853;45.426;9.206;2023-08-31T05:33:57;6.20;;;4.65;;
32393;SDS011;18853;45.426;9.206;2023-08-31T05:36:22;8.75;;;4.85;;
32393;SDS011;18853;45.426;9.206;2023-08-31T05:38:48;8.35;;;4.55;;
32393;SDS011;18853;45.426;9.206;2023-08-31T05:41:16;8.43;;;4.50;;
32393;SDS011;18853;45.426;9.206;2023-08-31T05:43:41;7.38;;;4.95;;
32393;SDS011;18853;45.426;9.206;2023-08-31T05:46:07;8.10;;;5.07;;
32393;SDS011;18853;45.426;9.206;2023-08-31T05:48:34;7.68;;;5.05;;
32393;SDS011;18853;45.426;9.206;2023-08-31T05:51:01;7.70;;;5.15;;
32393;SDS011;18853;45.426;9.206;2023-08-31T05:53:28;9.23;;;5.50;;
32393;SDS011;18853;45.426;9.206;2023-08-31T05:55:57;9.48;;;6.00;;
32393;SDS011;18853;45.426;9.206;2023-08-31T05:58:33;9.65;;;5.43;;
32393;SDS011;18853;45.426;9.206;2023-08-31T06:01:03;6.78;;;4.97;;
32393;SDS011;18853;45.426;9.206;2023-08-31T06:03:29;11.65;;;5.90;;
32393;SDS011;18853;45.426;9.206;2023-08-31T06:05:57;9.32;;;5.80;;
32393;SDS011;18853;45.426;9.206;2023-08-31T06:08:24;7.57;;;5.70;;
32393;SDS011;18853;45.426;9.206;2023-08-31T06:10:50;8.68;;;5.85;;
32393;SDS011;18853;45.426;9.206;2023-08-31T06:13:16;10.30;;;6.57;;
32393;SDS011;18853;45.426;9.206;2023-08-31T06:15:42;11.18;;;7.10;;
32393;SDS011;18853;45.426;9.206;2023-08-31T06:18:09;10.63;;;6.47;;
32393;SDS011;18853;45.426;9.206;2023-08-31T06:20:35;10.32;;;6.18;;
32393;SDS011;18853;45.426;9.206;2023-08-31T06:23:01;9.15;;;5.45;;
32393;SDS011;18853;45.426;9.206;2023-08-31T06:25:27;9.02;;;5.72;;
32393;SDS011;18853;45.426;9.206;2023-08-31T06:27:53;8.13;;;5.40;;
32393;SDS011;18853;45.426;9.206;2023-08-31T06:30:19;9.50;;;5.45;;
32393;SDS011;18853;45.426;9.206;2023-08-31T06:32:46;10.70;;;6.20;;
32393;SDS011;18853;45.426;9.206;2023-08-31T06:35:13;9.35;;;5.95;;
32393;SDS011;18853;45.426;9.206;2023-08-31T06:37:40;8.77;;;5.95;;
32393;SDS011;18853;45.426;9.206;2023-08-31T06:40:06;10.80;;;5.88;;
32393;SDS011;18853;45.426;9.206;2023-08-31T06:42:35;5.80;;;4.75;;
32393;SDS011;18853;45.426;9.206;2023-08-31T06:45:02;8.40;;;5.57;;
32393;SDS011;18853;45.426;9.206;2023-08-31T06:47:28;10.10;;;5.45;;
32393;SDS011;18853;45.426;9.206;2023-08-31T06:49:54;10.02;;;6.05;;
32393;SDS011;18853;45.426;9.206;2023-08-31T06:52:20;7.07;;;5.47;;
32393;SDS011;18853;45.426;9.206;2023-08-31T06:54:45;10.07;;;6.40;;
32393;SDS011;18853;45.426;9.206;2023-08-31T06:57:11;7.07;;;5.20;;
32393;SDS011;18853;45.426;9.206;2023-08-31T06:59:37;7.22;;;4.72;;
32393;SDS011;18853;45.426;9.206;2023-08-31T07:02:02;8.63;;;5.32;;
32393;SDS011;18853;45.426;9.206;2023-08-31T07:04:28;9.65;;;4.60;;
32393;SDS011;18853;45.426;9.206;2023-08-31T07:06:54;9.13;;;4.45;;
32393;SDS011;18853;45.426;9.206;2023-08-31T07:09:19;8.40;;;3.72;;
32393;SDS011;18853;45.426;9.206;2023-08-31T07:11:45;9.15;;;3.90;;
32393;SDS011;18853;45.426;9.206;2023-08-31T07:14:11;8.52;;;3.38;;
32393;SDS011;18853;45.426;9.206;2023-08-31T07:16:36;8.80;;;3.58;;
32393;SDS011;18853;45.426;9.206;2023-08-31T07:19:02;5.88;;;4.00;;
32393;SDS011;18853;45.426;9.206;2023-08-31T07:21:28;6.07;;;4.15;;
32393;SDS011;18853;45.426;9.206;2023-08-31T07:23:53;9.68;;;4.80;;
32393;SDS011;18853;45.426;9.206;2023-08-31T07:26:20;10.27;;;5.18;;
32393;SDS011;18853;45.426;9.206;2023-08-31T07:28:46;8.00;;;4.90;;
32393;SDS011;18853;45.426;9.206;2023-08-31T07:31:12;7.97;;;5.13;;
32393;SDS011;18853;45.426;9.206;2023-08-31T07:33:38;10.70;;;5.05;;
32393;SDS011;18853;45.426;9.206;2023-08-31T07:36:04;9.32;;;4.78;;
32393;SDS011;18853;45.426;9.206;2023-08-31T07:38:31;10.70;;;5.38;;
32393;SDS011;18853;45.426;9.206;2023-08-31T07:40:57;11.63;;;5.63;;
32393;SDS011;18853;45.426;9.206;2023-08-31T07:43:22;9.43;;;4.47;;
32393;SDS011;18853;45.426;9.206;2023-08-31T07:45:48;9.60;;;6.00;;
32393;SDS011;18853;45.426;9.206;2023-08-31T07:48:14;7.70;;;5.05;;
32393;SDS011;18853;45.426;9.206;2023-08-31T07:50:40;7.20;;;5.30;;
32393;SDS011;18853;45.426;9.206;2023-08-31T07:53:07;7.75;;;5.53;;
32393;SDS011;18853;45.426;9.206;2023-08-31T07:55:32;10.70;;;4.90;;
32393;SDS011;18853;45.426;9.206;2023-08-31T07:57:58;8.68;;;5.05;;
32393;SDS011;18853;45.426;9.206;2023-08-31T08:00:24;7.60;;;5.00;;
32393;SDS011;18853;45.426;9.206;2023-08-31T08:02:49;7.50;;;5.38;;
32393;SDS011;18853;45.426;9.206;2023-08-31T08:05:15;7.88;;;4.70;;
32393;SDS011;18853;45.426;9.206;2023-08-31T08:07:41;9.60;;;5.28;;
32393;SDS011;18853;45.426;9.206;2023-08-31T08:10:08;8.32;;;4.80;;
32393;SDS011;18853;45.426;9.206;2023-08-31T08:12:40;9.23;;;4.75;;
32393;SDS011;18853;45.426;9.206;2023-08-31T08:15:11;8.93;;;4.60;;
32393;SDS011;18853;45.426;9.206;2023-08-31T08:17:38;7.32;;;4.97;;
32393;SDS011;18853;45.426;9.206;2023-08-31T08:20:04;8.48;;;3.75;;
32393;SDS011;18853;45.426;9.206;2023-08-31T08:22:31;6.85;;;3.90;;
32393;SDS011;18853;45.426;9.206;2023-08-31T08:24:57;6.00;;;3.33;;
32393;SDS011;18853;45.426;9.206;2023-08-31T08:27:23;8.38;;;4.22;;
32393;SDS011;18853;45.426;9.206;2023-08-31T08:29:48;6.22;;;3.38;;
32393;SDS011;18853;45.426;9.206;2023-08-31T08:32:14;7.10;;;3.60;;
32393;SDS011;18853;45.426;9.206;2023-08-31T08:34:40;8.98;;;3.63;;
32393;SDS011;18853;45.426;9.206;2023-08-31T08:37:06;5.80;;;3.15;;
32393;SDS011;18853;45.426;9.206;2023-08-31T08:39:31;6.45;;;3.53;;
32393;SDS011;18853;45.426;9.206;2023-08-31T08:41:57;5.10;;;3.05;;
32393;SDS011;18853;45.426;9.206;2023-08-31T08:44:24;6.18;;;2.90;;
32393;SDS011;18853;45.426;9.206;2023-08-31T08:46:54;7.35;;;2.80;;
32393;SDS011;18853;45.426;9.206;2023-08-31T08:49:21;5.57;;;2.50;;
32393;SDS011;18853;45.426;9.206;2023-08-31T08:51:49;6.40;;;2.80;;
32393;SDS011;18853;45.426;9.206;2023-08-31T08:54:16;9.38;;;2.80;;
32393;SDS011;18853;45.426;9.206;2023-08-31T08:56:43;6.93;;;2.63;;
32393;SDS011;18853;45.426;9.206;2023-08-31T08:59:09;7.47;;;2.90;;
32393;SDS011;18853;45.426;9.206;2023-08-31T09:01:38;5.80;;;2.20;;
32393;SDS011;18853;45.426;9.206;2023-08-31T09:04:04;7.07;;;3.08;;
32393;SDS011;18853;45.426;9.206;2023-08-31T09:06:30;6.35;;;2.83;;
32393;SDS011;18853;45.426;9.206;2023-08-31T09:08:56;5.32;;;2.38;;
32393;SDS011;18853;45.426;9.206;2023-08-31T09:11:22;10.13;;;2.90;;
32393;SDS011;18853;45.426;9.206;2023-08-31T09:13:49;6.60;;;1.77;;
32393;SDS011;18853;45.426;9.206;2023-08-31T09:16:28;7.70;;;2.75;;
32393;SDS011;18853;45.426;9.206;2023-08-31T09:18:55;9.27;;;3.22;;
32393;SDS011;18853;45.426;9.206;2023-08-31T09:21:22;5.30;;;2.67;;
32393;SDS011;18853;45.426;9.206;2023-08-31T09:23:59;9.10;;;3.60;;
32393;SDS011;18853;45.426;9.206;2023-08-31T09:26:25;5.65;;;3.25;;
32393;SDS011;18853;45.426;9.206;2023-08-31T09:28:51;7.47;;;3.97;;
32393;SDS011;18853;45.426;9.206;2023-08-31T09:31:17;7.00;;;3.60;;
32393;SDS011;18853;45.426;9.206;2023-08-31T09:33:52;10.13;;;3.33;;
32393;SDS011;18853;45.426;9.206;2023-08-31T09:36:19;10.73;;;3.00;;
32393;SDS011;18853;45.426;9.206;2023-08-31T09:38:45;6.85;;;2.40;;
32393;SDS011;18853;45.426;9.206;2023-08-31T09:41:11;10.43;;;2.33;;
32393;SDS011;18853;45.426;9.206;2023-08-31T09:43:38;7.35;;;2.53;;
32393;SDS011;18853;45.426;9.206;2023-08-31T09:46:04;6.57;;;2.28;;
32393;SDS011;18853;45.426;9.206;2023-08-31T09:48:30;9.57;;;2.45;;
32393;SDS011;18853;45.426;9.206;2023-08-31T09:50:57;5.57;;;2.08;;
32393;SDS011;18853;45.426;9.206;2023-08-31T09:53:26;4.53;;;1.88;;
32393;SDS011;18853;45.426;9.206;2023-08-31T09:55:54;7.05;;;2.20;;
32393;SDS011;18853;45.426;9.206;2023-08-31T09:58:21;6.10;;;2.30;;
32393;SDS011;18853;45.426;9.206;2023-08-31T10:00:50;7.63;;;2.80;;
32393;SDS011;18853;45.426;9.206;2023-08-31T10:03:17;9.98;;;3.03;;
32393;SDS011;18853;45.426;9.206;2023-08-31T10:05:45;6.50;;;1.90;;
32393;SDS011;18853;45.426;9.206;2023-08-31T10:08:14;8.60;;;2.05;;
32393;SDS011;18853;45.426;9.206;2023-08-31T10:10:41;6.63;;;2.25;;
32393;SDS011;18853;45.426;9.206;2023-08-31T10:13:07;6.47;;;2.28;;
32393;SDS011;18853;45.426;9.206;2023-08-31T10:15:33;5.80;;;2.42;;
32393;SDS011;18853;45.426;9.206;2023-08-31T10:18:05;4.13;;;1.83;;
32393;SDS011;18853;45.426;9.206;2023-08-31T10:20:32;7.70;;;2.30;;
32393;SDS011;18853;45.426;9.206;2023-08-31T10:23:02;5.53;;;1.88;;
32393;SDS011;18853;45.426;9.206;2023-08-31T10:28:17;10.48;;;2.42;;
32393;SDS011;18853;45.426;9.206;2023-08-31T10:31:06;4.80;;;2.22;;
32393;SDS011;18853;45.426;9.206;2023-08-31T10:33:43;7.45;;;2.22;;
32393;SDS011;18853;45.426;9.206;2023-08-31T10:36:19;5.43;;;2.50;;
32393;SDS011;18853;45.426;9.206;2023-08-31T10:38:46;4.45;;;2.20;;
32393;SDS011;18853;45.426;9.206;2023-08-31T10:41:26;6.07;;;2.40;;
32393;SDS011;18853;45.426;9.206;2023-08-31T10:44:00;8.20;;;2.05;;
32393;SDS011;18853;45.426;9.206;2023-08-31T10:51:22;7.32;;;1.83;;
32393;SDS011;18853;45.426;9.206;2023-08-31T10:53:51;6.78;;;2.17;;
32393;SDS011;18853;45.426;9.206;2023-08-31T10:56:17;4.22;;;1.77;;
32393;SDS011;18853;45.426;9.206;2023-08-31T10:59:05;4.97;;;2.00;;
32393;SDS011;18853;45.426;9.206;2023-08-31T11:04:13;5.72;;;2.20;;
32393;SDS011;18853;45.426;9.206;2023-08-31T11:06:39;6.22;;;2.40;;
32393;SDS011;18853;45.426;9.206;2023-08-31T11:09:05;3.35;;;1.73;;
32393;SDS011;18853;45.426;9.206;2023-08-31T11:11:37;5.15;;;1.67;;
32393;SDS011;18853;45.426;9.206;2023-08-31T11:14:03;7.50;;;1.73;;
32393;SDS011;18853;45.426;9.206;2023-08-31T11:16:29;4.15;;;1.90;;
32393;SDS011;18853;45.426;9.206;2023-08-31T11:18:56;4.88;;;1.90;;
32393;SDS011;18853;45.426;9.206;2023-08-31T11:21:21;7.18;;;1.63;;
32393;SDS011;18853;45.426;9.206;2023-08-31T11:23:47;5.35;;;1.88;;
32393;SDS011;18853;45.426;9.206;2023-08-31T11:26:14;6.60;;;2.10;;
32393;SDS011;18853;45.426;9.206;2023-08-31T11:28:42;7.68;;;2.47;;
32393;SDS011;18853;45.426;9.206;2023-08-31T11:31:09;5.75;;;1.80;;
32393;SDS011;18853;45.426;9.206;2023-08-31T11:33:34;5.40;;;1.88;;
32393;SDS011;18853;45.426;9.206;2023-08-31T11:36:02;4.15;;;2.00;;
32393;SDS011;18853;45.426;9.206;2023-08-31T11:38:28;4.72;;;1.80;;
32393;SDS011;18853;45.426;9.206;2023-08-31T11:40:56;6.45;;;2.13;;
32393;SDS011;18853;45.426;9.206;2023-08-31T11:43:23;6.60;;;1.85;;
32393;SDS011;18853;45.426;9.206;2023-08-31T11:45:49;5.53;;;2.03;;
32393;SDS011;18853;45.426;9.206;2023-08-31T11:48:15;4.40;;;1.98;;
32393;SDS011;18853;45.426;9.206;2023-08-31T11:50:41;6.85;;;1.90;;
32393;SDS011;18853;45.426;9.206;2023-08-31T11:53:08;4.93;;;1.77;;
32393;SDS011;18853;45.426;9.206;2023-08-31T11:55:34;4.90;;;1.90;;
32393;SDS011;18853;45.426;9.206;2023-08-31T11:57:59;5.20;;;1.85;;
32393;SDS011;18853;45.426;9.206;2023-08-31T12:00:25;6.75;;;1.65;;
32393;SDS011;18853;45.426;9.206;2023-08-31T12:03:00;4.03;;;1.88;;
32393;SDS011;18853;45.426;9.206;2023-08-31T12:05:27;5.90;;;1.38;;
32393;SDS011;18853;45.426;9.206;2023-08-31T12:07:56;5.40;;;1.52;;
32393;SDS011;18853;45.426;9.206;2023-08-31T12:10:25;7.05;;;1.67;;
32393;SDS011;18853;45.426;9.206;2023-08-31T12:12:51;4.57;;;1.48;;
32393;SDS011;18853;45.426;9.206;2023-08-31T12:15:18;4.40;;;1.50;;
32393;SDS011;18853;45.426;9.206;2023-08-31T12:17:47;7.55;;;1.77;;
32393;SDS011;18853;45.426;9.206;2023-08-31T12:20:19;4.25;;;1.33;;
32393;SDS011;18853;45.426;9.206;2023-08-31T12:22:51;4.10;;;1.60;;
32393;SDS011;18853;45.426;9.206;2023-08-31T12:25:20;6.10;;;1.55;;
32393;SDS011;18853;45.426;9.206;2023-08-31T12:27:47;6.03;;;1.50;;
32393;SDS011;18853;45.426;9.206;2023-08-31T12:30:12;5.00;;;1.40;;
32393;SDS011;18853;45.426;9.206;2023-08-31T12:32:38;5.57;;;1.58;;
32393;SDS011;18853;45.426;9.206;2023-08-31T12:35:04;4.60;;;1.20;;
32393;SDS011;18853;45.426;9.206;2023-08-31T12:37:30;5.82;;;1.75;;
32393;SDS011;18853;45.426;9.206;2023-08-31T12:39:56;5.97;;;2.03;;
32393;SDS011;18853;45.426;9.206;2023-08-31T12:42:23;5.38;;;1.40;;
32393;SDS011;18853;45.426;9.206;2023-08-31T12:44:48;3.33;;;1.52;;
32393;SDS011;18853;45.426;9.206;2023-08-31T12:47:14;4.45;;;1.60;;
32393;SDS011;18853;45.426;9.206;2023-08-31T12:49:40;4.20;;;1.30;;
32393;SDS011;18853;45.426;9.206;2023-08-31T12:52:05;4.95;;;1.75;;
32393;SDS011;18853;45.426;9.206;2023-08-31T12:54:31;3.65;;;1.45;;
32393;SDS011;18853;45.426;9.206;2023-08-31T12:56:57;6.95;;;1.85;;
32393;SDS011;18853;45.426;9.206;2023-08-31T12:59:22;5.53;;;1.60;;
32393;SDS011;18853;45.426;9.206;2023-08-31T13:01:48;5.03;;;1.67;;
32393;SDS011;18853;45.426;9.206;2023-08-31T13:04:14;6.22;;;1.50;;
32393;SDS011;18853;45.426;9.206;2023-08-31T13:06:39;4.00;;;1.70;;
32393;SDS011;18853;45.426;9.206;2023-08-31T13:09:05;5.63;;;1.95;;
32393;SDS011;18853;45.426;9.206;2023-08-31T13:11:33;4.85;;;1.52;;
32393;SDS011;18853;45.426;9.206;2023-08-31T13:13:59;2.35;;;1.23;;
32393;SDS011;18853;45.426;9.206;2023-08-31T13:16:25;6.57;;;1.63;;
32393;SDS011;18853;45.426;9.206;2023-08-31T13:18:50;3.25;;;1.30;;
32393;SDS011;18853;45.426;9.206;2023-08-31T13:21:16;4.28;;;1.70;;
32393;SDS011;18853;45.426;9.206;2023-08-31T13:23:42;5.32;;;1.88;;
32393;SDS011;18853;45.426;9.206;2023-08-31T13:26:09;5.35;;;1.40;;
32393;SDS011;18853;45.426;9.206;2023-08-31T13:28:34;5.70;;;1.83;;
32393;SDS011;18853;45.426;9.206;2023-08-31T13:31:00;3.88;;;1.33;;
32393;SDS011;18853;45.426;9.206;2023-08-31T13:33:29;5.40;;;1.75;;
32393;SDS011;18853;45.426;9.206;2023-08-31T13:35:57;4.13;;;1.67;;
32393;SDS011;18853;45.426;9.206;2023-08-31T13:38:24;4.90;;;1.63;;
32393;SDS011;18853;45.426;9.206;2023-08-31T13:40:53;4.03;;;1.38;;
32393;SDS011;18853;45.426;9.206;2023-08-31T13:43:22;4.47;;;1.23;;
32393;SDS011;18853;45.426;9.206;2023-08-31T13:45:48;3.90;;;1.40;;
32393;SDS011;18853;45.426;9.206;2023-08-31T13:48:14;5.13;;;1.60;;
32393;SDS011;18853;45.426;9.206;2023-08-31T13:50:40;5.43;;;1.10;;
32393;SDS011;18853;45.426;9.206;2023-08-31T13:53:09;4.07;;;1.38;;
32393;SDS011;18853;45.426;9.206;2023-08-31T13:55:35;4.40;;;1.38;;
32393;SDS011;18853;45.426;9.206;2023-08-31T13:58:04;3.88;;;1.55;;
32393;SDS011;18853;45.426;9.206;2023-08-31T14:00:34;4.88;;;1.63;;
32393;SDS011;18853;45.426;9.206;2023-08-31T14:03:00;4.20;;;1.23;;
32393;SDS011;18853;45.426;9.206;2023-08-31T14:05:31;6.03;;;1.52;;
32393;SDS011;18853;45.426;9.206;2023-08-31T14:07:57;3.10;;;1.30;;
32393;SDS011;18853;45.426;9.206;2023-08-31T14:10:26;3.40;;;1.27;;
32393;SDS011;18853;45.426;9.206;2023-08-31T14:12:51;4.00;;;1.27;;
32393;SDS011;18853;45.426;9.206;2023-08-31T14:15:17;3.50;;;1.38;;
32393;SDS011;18853;45.426;9.206;2023-08-31T14:17:43;2.35;;;1.00;;
32393;SDS011;18853;45.426;9.206;2023-08-31T14:20:08;4.30;;;1.60;;
32393;SDS011;18853;45.426;9.206;2023-08-31T14:22:36;5.03;;;0.80;;
32393;SDS011;18853;45.426;9.206;2023-08-31T14:25:02;4.88;;;1.55;;
32393;SDS011;18853;45.426;9.206;2023-08-31T14:27:28;3.53;;;1.20;;
32393;SDS011;18853;45.426;9.206;2023-08-31T14:29:56;4.13;;;1.50;;
32393;SDS011;18853;45.426;9.206;2023-08-31T14:32:23;5.40;;;1.65;;
32393;SDS011;18853;45.426;9.206;2023-08-31T14:34:48;7.03;;;1.45;;
32393;SDS011;18853;45.426;9.206;2023-08-31T14:37:14;6.95;;;1.40;;
32393;SDS011;18853;45.426;9.206;2023-08-31T14:39:40;5.25;;;1.10;;
32393;SDS011;18853;45.426;9.206;2023-08-31T14:42:06;5.38;;;1.15;;
32393;SDS011;18853;45.426;9.206;2023-08-31T14:44:33;5.05;;;1.08;;
32393;SDS011;18853;45.426;9.206;2023-08-31T14:47:01;4.43;;;1.60;;
32393;SDS011;18853;45.426;9.206;2023-08-31T14:49:28;5.30;;;1.30;;
32393;SDS011;18853;45.426;9.206;2023-08-31T14:51:54;3.35;;;1.40;;
32393;SDS011;18853;45.426;9.206;2023-08-31T14:54:19;3.83;;;1.20;;
32393;SDS011;18853;45.426;9.206;2023-08-31T14:56:45;4.13;;;1.38;;
32393;SDS011;18853;45.426;9.206;2023-08-31T14:59:11;4.20;;;1.48;;
32393;SDS011;18853;45.426;9.206;2023-08-31T15:01:37;4.65;;;1.30;;
32393;SDS011;18853;45.426;9.206;2023-08-31T15:04:03;2.83;;;1.25;;